Time;durP1;ratioP1;P1;durP2;ratioP2;P2;SDS_P1;SDS_P2;PMS_P1;PMS_P2;Temp;Humidity;BMP_temperature;BMP_pressure;BME280_temperature;BME280_humidity;BME280_pressure;Samples;Min_cycle;Max_cycle;Signal;HPM_P1;HPM_P2
2021/11/02 00:01:00;;;;;;;0.20;0.20;;;;;;;;;;5062876;28;20249;-69
2021/11/02 00:03:26;;;;;;;0.10;0.10;;;;;;;;;;5062454;28;20400;-69
2021/11/02 00:05:52;;;;;;;0.10;0.10;;;;;;;;;;5062556;28;20437;-69
2021/11/02 00:08:19;;;;;;;0.10;0.10;;;;;;;;;;5062229;28;20267;-68
2021/11/02 00:10:45;;;;;;;0.10;0.10;;;;;;;;;;5057475;28;20226;-68
2021/11/02 00:13:13;;;;;;;0.10;0.10;;;;;;;;;;5062615;28;20203;-69
2021/11/02 00:15:44;;;;;;;0.10;0.10;;;;;;;;;;5062259;28;20204;-69
2021/11/02 00:18:10;;;;;;;0.10;0.10;;;;;;;;;;5062404;28;20202;-69
2021/11/02 00:20:38;;;;;;;0.10;0.10;;;;;;;;;;5062675;28;20414;-68
2021/11/02 00:23:06;;;;;;;0.10;0.10;;;;;;;;;;5062610;28;20246;-69
2021/11/02 00:25:33;;;;;;;0.10;0.10;;;;;;;;;;5062671;28;20400;-69
2021/11/02 00:28:01;;;;;;;0.10;0.10;;;;;;;;;;5062534;28;20226;-68
2021/11/02 00:30:29;;;;;;;0.27;0.27;;;;;;;;;;5062263;28;20500;-68
2021/11/02 00:32:55;;;;;;;0.10;0.10;;;;;;;;;;5062139;28;20279;-68
2021/11/02 00:35:22;;;;;;;0.10;0.10;;;;;;;;;;5062630;28;20216;-68
2021/11/02 00:37:48;;;;;;;0.10;0.10;;;;;;;;;;5062529;28;20249;-68
2021/11/02 00:40:16;;;;;;;0.10;0.10;;;;;;;;;;5062550;28;20245;-67
2021/11/02 00:42:49;;;;;;;0.10;0.10;;;;;;;;;;5063628;28;20210;-70
2021/11/02 00:45:17;;;;;;;0.10;0.10;;;;;;;;;;5052567;28;20285;-68
2021/11/02 00:47:45;;;;;;;0.10;0.10;;;;;;;;;;5065764;28;20204;-68
2021/11/02 00:50:11;;;;;;;0.10;0.10;;;;;;;;;;5066089;28;20204;-69
2021/11/02 00:52:38;;;;;;;0.10;0.10;;;;;;;;;;5066184;28;20397;-68
2021/11/02 00:55:05;;;;;;;0.10;0.10;;;;;;;;;;5066006;28;20200;-69
2021/11/02 00:57:31;;;;;;;0.10;0.10;;;;;;;;;;5065780;28;20204;-68
2021/11/02 00:59:58;;;;;;;0.10;0.10;;;;;;;;;;5065924;28;20382;-68
2021/11/02 01:02:24;;;;;;;0.10;0.10;;;;;;;;;;5065714;28;20253;-68
2021/11/02 01:04:52;;;;;;;0.10;0.10;;;;;;;;;;5065504;28;20203;-68
2021/11/02 01:07:18;;;;;;;0.10;0.10;;;;;;;;;;5060385;28;20494;-68
2021/11/02 01:09:45;;;;;;;0.10;0.10;;;;;;;;;;5057936;28;20273;-68
2021/11/02 01:12:11;;;;;;;0.10;0.10;;;;;;;;;;5061759;28;20240;-69
2021/11/02 01:14:38;;;;;;;0.33;0.33;;;;;;;;;;5052251;28;20253;-67
2021/11/02 01:17:05;;;;;;;0.10;0.10;;;;;;;;;;5052077;28;20216;-68
2021/11/02 01:19:31;;;;;;;0.10;0.10;;;;;;;;;;5047268;28;20203;-69
2021/11/02 01:21:58;;;;;;;0.10;0.10;;;;;;;;;;5064569;28;20197;-69
2021/11/02 01:24:25;;;;;;;0.10;0.10;;;;;;;;;;5052335;28;20208;-69
2021/11/02 01:26:51;;;;;;;0.10;0.10;;;;;;;;;;5065129;28;20244;-69
2021/11/02 01:29:17;;;;;;;0.10;0.10;;;;;;;;;;5046081;28;20226;-69
2021/11/02 01:31:44;;;;;;;0.10;0.10;;;;;;;;;;5045287;28;20229;-69
2021/11/02 01:34:10;;;;;;;0.10;0.10;;;;;;;;;;5045189;28;20272;-68
2021/11/02 01:36:36;;;;;;;0.10;0.10;;;;;;;;;;5044975;28;20271;-69
2021/11/02 01:39:05;;;;;;;0.10;0.10;;;;;;;;;;5046192;28;20277;-69
2021/11/02 01:41:32;;;;;;;0.10;0.10;;;;;;;;;;5065181;28;20242;-68
2021/11/02 01:43:59;;;;;;;0.10;0.10;;;;;;;;;;5065220;28;20204;-68
2021/11/02 01:46:26;;;;;;;0.57;0.57;;;;;;;;;;5064019;28;20542;-68
2021/11/02 01:48:53;;;;;;;0.10;0.10;;;;;;;;;;5064613;28;20229;-69
2021/11/02 01:51:21;;;;;;;0.10;0.10;;;;;;;;;;5046952;28;20206;-68
2021/11/02 01:53:47;;;;;;;0.10;0.10;;;;;;;;;;5054105;28;20249;-68
2021/11/02 01:56:17;;;;;;;0.83;0.83;;;;;;;;;;5048272;28;20201;-68
2021/11/02 01:58:46;;;;;;;0.10;0.10;;;;;;;;;;5053529;28;20210;-68
2021/11/02 02:01:14;;;;;;;0.10;0.10;;;;;;;;;;5049706;28;20210;-69
2021/11/02 02:03:42;;;;;;;0.10;0.10;;;;;;;;;;5052161;28;20231;-68
2021/11/02 02:06:12;;;;;;;0.10;0.10;;;;;;;;;;5064687;28;20230;-69
2021/11/02 02:08:41;;;;;;;0.10;0.10;;;;;;;;;;5058386;28;20408;-68
2021/11/02 02:11:10;;;;;;;0.10;0.10;;;;;;;;;;5048273;28;20211;-69
2021/11/02 02:13:43;;;;;;;0.10;0.10;;;;;;;;;;5049464;28;20565;-69
2021/11/02 02:16:12;;;;;;;0.10;0.10;;;;;;;;;;5064727;28;20202;-69
2021/11/02 02:18:43;;;;;;;0.10;0.10;;;;;;;;;;5064205;28;20199;-69
2021/11/02 02:21:12;;;;;;;0.10;0.10;;;;;;;;;;5063533;28;20254;-68
2021/11/02 02:23:52;;;;;;;0.10;0.10;;;;;;;;;;5047454;28;20238;-68
2021/11/02 02:26:29;;;;;;;0.10;0.10;;;;;;;;;;5054360;28;20208;-67
2021/11/02 02:29:00;;;;;;;0.10;0.10;;;;;;;;;;5045674;28;20537;-68
2021/11/02 02:31:28;;;;;;;0.10;0.10;;;;;;;;;;5055198;28;20243;-69
2021/11/02 02:33:55;;;;;;;0.20;0.20;;;;;;;;;;5050103;28;20205;-69
2021/11/02 02:36:21;;;;;;;0.10;0.10;;;;;;;;;;5054696;28;20206;-69
2021/11/02 02:38:48;;;;;;;0.10;0.10;;;;;;;;;;5047214;28;20310;-69
2021/11/02 02:41:15;;;;;;;0.10;0.10;;;;;;;;;;5044211;28;20215;-68
2021/11/02 02:43:43;;;;;;;0.10;0.10;;;;;;;;;;5043908;28;20239;-69
2021/11/02 02:46:12;;;;;;;0.10;0.10;;;;;;;;;;5054619;28;20211;-68
2021/11/02 02:48:39;;;;;;;0.10;0.10;;;;;;;;;;5056516;28;20275;-68
2021/11/02 02:51:06;;;;;;;0.10;0.10;;;;;;;;;;5058587;28;20200;-68
2021/11/02 02:53:33;;;;;;;0.10;0.10;;;;;;;;;;5043873;28;20211;-69
2021/11/02 02:56:01;;;;;;;0.10;0.10;;;;;;;;;;5043836;28;20210;-68
2021/11/02 02:58:30;;;;;;;0.10;0.10;;;;;;;;;;5043528;28;20270;-69
2021/11/02 03:00:58;;;;;;;0.10;0.10;;;;;;;;;;5059059;28;20204;-68
2021/11/02 03:03:25;;;;;;;0.10;0.10;;;;;;;;;;5055578;28;20556;-68
2021/11/02 03:05:53;;;;;;;0.10;0.10;;;;;;;;;;5057470;28;20544;-69
2021/11/02 03:08:20;;;;;;;0.10;0.10;;;;;;;;;;5043528;28;20279;-69
2021/11/02 03:10:47;;;;;;;0.10;0.10;;;;;;;;;;5056285;28;20207;-68
2021/11/02 03:13:14;;;;;;;0.10;0.10;;;;;;;;;;5058586;28;20214;-68
2021/11/02 03:18:33;;;;;;;0.10;0.10;;;;;;;;;;5059044;28;20222;-68
2021/11/02 03:48:51;;;;;;;0.10;0.10;;;;;;;;;;5042775;28;20264;-68
2021/11/02 03:51:43;;;;;;;0.10;0.10;;;;;;;;;;5042699;28;20246;-68
2021/11/02 03:54:35;;;;;;;0.10;0.10;;;;;;;;;;5042838;28;20206;-68
2021/11/02 03:57:09;;;;;;;0.10;0.10;;;;;;;;;;5042969;28;20243;-68
2021/11/02 04:00:05;;;;;;;0.10;0.10;;;;;;;;;;5042938;28;20270;-68
2021/11/02 04:27:54;;;;;;;0.10;0.10;;;;;;;;;;4952165;28;20279;-67
2021/11/02 05:09:58;;;;;;;0.10;0.10;;;;;;;;;;5045354;28;20260;-68
2021/11/02 05:12:57;;;;;;;0.10;0.10;;;;;;;;;;5050811;28;20201;-68
2021/11/02 05:48:31;;;;;;;0.10;0.10;;;;;;;;;;5054487;28;20209;-68
2021/11/02 05:51:13;;;;;;;0.10;0.10;;;;;;;;;;5061148;28;20222;-69
2021/11/02 05:56:24;;;;;;;0.10;0.10;;;;;;;;;;5037660;28;20239;-68
2021/11/02 05:58:58;;;;;;;0.10;0.10;;;;;;;;;;5052330;28;20498;-68
2021/11/02 06:01:35;;;;;;;0.10;0.10;;;;;;;;;;5064529;28;20349;-69
2021/11/02 06:04:15;;;;;;;0.10;0.10;;;;;;;;;;5051501;28;20230;-69
2021/11/02 06:06:49;;;;;;;0.10;0.10;;;;;;;;;;5044761;28;20210;-69
2021/11/02 06:09:22;;;;;;;0.40;0.40;;;;;;;;;;5044397;28;20450;-68
2021/11/02 06:28:33;;;;;;;0.10;0.10;;;;;;;;;;5049021;28;20244;-69
2021/11/02 06:31:04;;;;;;;0.10;0.10;;;;;;;;;;5049146;28;20279;-69
2021/11/02 06:33:41;;;;;;;0.10;0.10;;;;;;;;;;5058394;28;20192;-69
2021/11/02 06:36:34;;;;;;;0.10;0.10;;;;;;;;;;5051427;28;20230;-68
2021/11/02 06:39:27;;;;;;;0.10;0.10;;;;;;;;;;5051141;28;20268;-69
2021/11/02 06:50:48;;;;;;;0.10;0.10;;;;;;;;;;5045666;28;20233;-68
2021/11/02 06:56:16;;;;;;;0.10;0.10;;;;;;;;;;5055188;28;20202;-69
2021/11/02 07:15:47;;;;;;;0.10;0.10;;;;;;;;;;4979893;28;20221;-69
2021/11/02 07:18:16;;;;;;;0.10;0.10;;;;;;;;;;5028706;28;20238;-68
2021/11/02 07:20:48;;;;;;;0.10;0.10;;;;;;;;;;5062756;28;20211;-68
2021/11/02 07:23:29;;;;;;;0.10;0.10;;;;;;;;;;5048417;28;20274;-69
2021/11/02 07:26:07;;;;;;;0.10;0.10;;;;;;;;;;5051562;28;20198;-68
2021/11/02 08:46:21;;;;;;;0.10;0.10;;;;;;;;;;5050318;28;20262;-69
2021/11/02 08:48:52;;;;;;;0.10;0.10;;;;;;;;;;5052744;28;20277;-69
2021/11/02 08:51:20;;;;;;;0.10;0.10;;;;;;;;;;5058975;28;20214;-69
2021/11/02 08:53:46;;;;;;;0.10;0.10;;;;;;;;;;5050194;28;20212;-69
2021/11/02 08:56:15;;;;;;;0.10;0.10;;;;;;;;;;5048618;28;20491;-68
2021/11/02 08:58:44;;;;;;;0.10;0.10;;;;;;;;;;5048421;28;20388;-67
2021/11/02 09:01:11;;;;;;;0.10;0.10;;;;;;;;;;5052784;28;20211;-68
2021/11/02 09:03:39;;;;;;;0.10;0.10;;;;;;;;;;5060377;28;20212;-69
2021/11/02 09:06:07;;;;;;;0.10;0.10;;;;;;;;;;5057759;28;20203;-68
2021/11/02 09:08:39;;;;;;;0.10;0.10;;;;;;;;;;5053862;28;20217;-68
2021/11/02 09:11:05;;;;;;;0.10;0.10;;;;;;;;;;5065301;28;20345;-69
2021/11/02 09:13:33;;;;;;;0.10;0.10;;;;;;;;;;5049320;28;20266;-69
2021/11/02 09:16:00;;;;;;;1.80;1.80;;;;;;;;;;5051149;28;20204;-70
2021/11/02 09:18:29;;;;;;;0.10;0.10;;;;;;;;;;5048031;28;20390;-70
2021/11/02 09:20:55;;;;;;;0.10;0.10;;;;;;;;;;5045249;28;20224;-68
2021/11/02 09:23:22;;;;;;;0.10;0.10;;;;;;;;;;5048636;28;20257;-69
2021/11/02 09:25:51;;;;;;;16.83;7.70;;;;;;;;;;5046721;28;20203;-67
2021/11/02 09:28:18;;;;;;;0.10;0.10;;;;;;;;;;5045287;28;20209;-69
2021/11/02 09:30:44;;;;;;;0.10;0.10;;;;;;;;;;5055138;28;20248;-67
2021/11/02 09:33:11;;;;;;;0.10;0.10;;;;;;;;;;5048418;28;20203;-68
2021/11/02 09:35:37;;;;;;;0.10;0.10;;;;;;;;;;5056114;28;20207;-69
2021/11/02 09:38:10;;;;;;;0.10;0.10;;;;;;;;;;5045352;28;20207;-69
2021/11/02 09:41:03;;;;;;;0.10;0.10;;;;;;;;;;5044843;28;20208;-68
2021/11/02 09:43:48;;;;;;;0.10;0.10;;;;;;;;;;5044820;28;20211;-69
2021/11/02 09:46:29;;;;;;;0.10;0.10;;;;;;;;;;5059020;28;20489;-69
2021/11/02 09:49:13;;;;;;;0.10;0.10;;;;;;;;;;5053660;28;20211;-68
2021/11/02 09:51:55;;;;;;;0.10;0.10;;;;;;;;;;5044370;28;20285;-69
2021/11/02 09:54:45;;;;;;;0.10;0.10;;;;;;;;;;5062011;28;20200;-68
2021/11/02 09:57:34;;;;;;;0.10;0.10;;;;;;;;;;5050964;28;20283;-68
2021/11/02 10:00:13;;;;;;;0.10;0.10;;;;;;;;;;5044821;28;20197;-68
2021/11/02 10:03:00;;;;;;;0.10;0.10;;;;;;;;;;5044248;28;20200;-68
2021/11/02 10:05:34;;;;;;;0.10;0.10;;;;;;;;;;5044254;28;20278;-69
2021/11/02 10:08:20;;;;;;;0.10;0.10;;;;;;;;;;5045691;28;20199;-70
2021/11/02 10:10:53;;;;;;;0.10;0.10;;;;;;;;;;5054032;28;20254;-69
2021/11/02 10:13:28;;;;;;;0.10;0.10;;;;;;;;;;5049571;28;20263;-68
2021/11/02 10:16:03;;;;;;;0.10;0.10;;;;;;;;;;5043482;28;20456;-68
2021/11/02 10:18:49;;;;;;;0.10;0.10;;;;;;;;;;5063918;28;20237;-69
2021/11/02 10:21:25;;;;;;;0.10;0.10;;;;;;;;;;5061684;28;20199;-68
2021/11/02 10:24:04;;;;;;;0.10;0.10;;;;;;;;;;5044104;28;20211;-68
2021/11/02 10:26:36;;;;;;;0.10;0.10;;;;;;;;;;5043619;28;20203;-68
2021/11/02 10:29:19;;;;;;;0.10;0.10;;;;;;;;;;5052667;28;20460;-68
2021/11/02 10:31:56;;;;;;;0.10;0.10;;;;;;;;;;5063738;28;20325;-68
2021/11/02 10:34:28;;;;;;;0.10;0.10;;;;;;;;;;5060020;28;20211;-68
2021/11/02 10:36:58;;;;;;;0.30;0.30;;;;;;;;;;5058401;28;20206;-68
2021/11/02 10:39:31;;;;;;;0.10;0.10;;;;;;;;;;5064208;28;20213;-69
2021/11/02 10:42:04;;;;;;;0.10;0.10;;;;;;;;;;5048227;28;20208;-68
2021/11/02 10:44:41;;;;;;;0.10;0.10;;;;;;;;;;5052445;28;20276;-68
2021/11/02 10:47:09;;;;;;;0.10;0.10;;;;;;;;;;5052054;28;20424;-69
2021/11/02 10:49:48;;;;;;;0.10;0.10;;;;;;;;;;5043824;28;20209;-68
2021/11/02 10:52:18;;;;;;;0.10;0.10;;;;;;;;;;5043652;28;20243;-67
2021/11/02 10:54:52;;;;;;;0.10;0.10;;;;;;;;;;5044077;28;20250;-68
2021/11/02 10:57:33;;;;;;;0.10;0.10;;;;;;;;;;5043293;28;20305;-69
2021/11/02 11:00:01;;;;;;;0.10;0.10;;;;;;;;;;5043511;28;20207;-68
2021/11/02 11:02:29;;;;;;;0.10;0.10;;;;;;;;;;5048013;28;20200;-68
2021/11/02 11:04:56;;;;;;;0.10;0.10;;;;;;;;;;5063415;28;20207;-68
2021/11/02 11:07:22;;;;;;;0.10;0.10;;;;;;;;;;5059486;28;20208;-67
2021/11/02 11:09:51;;;;;;;0.10;0.10;;;;;;;;;;5051628;28;20208;-68
2021/11/02 11:12:19;;;;;;;0.10;0.10;;;;;;;;;;5057175;28;20210;-69
2021/11/02 11:14:47;;;;;;;0.10;0.10;;;;;;;;;;5043045;28;20448;-68
2021/11/02 11:17:15;;;;;;;0.10;0.10;;;;;;;;;;5056020;28;20201;-68
2021/11/02 11:19:50;;;;;;;0.10;0.10;;;;;;;;;;5054373;28;20209;-68
2021/11/02 11:22:20;;;;;;;0.10;0.10;;;;;;;;;;5051352;28;20492;-67
2021/11/02 11:24:52;;;;;;;0.10;0.10;;;;;;;;;;5043009;28;20243;-69
2021/11/02 11:27:19;;;;;;;0.10;0.10;;;;;;;;;;5043049;28;20201;-69
2021/11/02 11:29:47;;;;;;;0.10;0.10;;;;;;;;;;5043319;28;20205;-68
2021/11/02 11:32:14;;;;;;;0.10;0.10;;;;;;;;;;5046708;28;20232;-68
2021/11/02 11:34:42;;;;;;;0.10;0.10;;;;;;;;;;5043266;28;20262;-70
2021/11/02 11:37:10;;;;;;;0.10;0.10;;;;;;;;;;5057934;28;20296;-68
2021/11/02 11:39:37;;;;;;;0.10;0.10;;;;;;;;;;5062882;28;20242;-69
2021/11/02 11:42:04;;;;;;;0.10;0.10;;;;;;;;;;5062588;28;20201;-68
2021/11/02 11:44:31;;;;;;;0.10;0.10;;;;;;;;;;5054732;28;20215;-69
2021/11/02 11:47:05;;;;;;;0.10;0.10;;;;;;;;;;5052044;28;20205;-69
2021/11/02 11:49:32;;;;;;;0.10;0.10;;;;;;;;;;5051294;28;20262;-68
2021/11/02 11:51:59;;;;;;;0.10;0.10;;;;;;;;;;5051026;28;20266;-68
2021/11/02 11:54:29;;;;;;;0.10;0.10;;;;;;;;;;5056899;28;20212;-68
2021/11/02 11:56:59;;;;;;;0.10;0.10;;;;;;;;;;5042768;28;20218;-67
2021/11/02 11:59:26;;;;;;;0.10;0.10;;;;;;;;;;5056626;28;20204;-68
2021/11/02 12:01:57;;;;;;;0.10;0.10;;;;;;;;;;5047956;28;20208;-68
2021/11/02 12:04:26;;;;;;;0.10;0.10;;;;;;;;;;5048739;28;20205;-66
2021/11/02 12:06:59;;;;;;;0.20;0.20;;;;;;;;;;5061973;28;20265;-67
2021/11/02 12:09:27;;;;;;;0.10;0.10;;;;;;;;;;5056468;28;20271;-67
2021/11/02 12:12:00;;;;;;;0.10;0.10;;;;;;;;;;5053128;28;20594;-68
2021/11/02 12:14:27;;;;;;;0.10;0.10;;;;;;;;;;5048968;28;20343;-67
2021/11/02 12:16:58;;;;;;;0.10;0.10;;;;;;;;;;5061740;28;20226;-67
2021/11/02 12:19:38;;;;;;;0.10;0.10;;;;;;;;;;5062098;28;20422;-68
2021/11/02 12:22:08;;;;;;;0.10;0.10;;;;;;;;;;5062481;28;20230;-70
2021/11/02 12:24:35;;;;;;;0.10;0.10;;;;;;;;;;5061658;28;20551;-69
2021/11/02 12:27:12;;;;;;;0.10;0.10;;;;;;;;;;5056609;28;20213;-69
2021/11/02 12:29:39;;;;;;;0.10;0.10;;;;;;;;;;5055177;28;20204;-69
2021/11/02 12:32:06;;;;;;;0.10;0.10;;;;;;;;;;5060081;28;20444;-69
2021/11/02 12:34:43;;;;;;;0.10;0.10;;;;;;;;;;5062741;28;20204;-69
2021/11/02 12:37:11;;;;;;;0.10;0.10;;;;;;;;;;5042831;28;20414;-68
2021/11/02 12:39:37;;;;;;;0.10;0.10;;;;;;;;;;5056031;28;20208;-67
2021/11/02 12:42:04;;;;;;;0.10;0.10;;;;;;;;;;5051185;28;20198;-68
2021/11/02 12:44:33;;;;;;;0.10;0.10;;;;;;;;;;5066267;28;20221;-68
2021/11/02 12:47:00;;;;;;;0.10;0.10;;;;;;;;;;5057933;28;20393;-70
2021/11/02 12:49:30;;;;;;;0.10;0.10;;;;;;;;;;5065268;28;20218;-68
2021/11/02 12:52:02;;;;;;;0.10;0.10;;;;;;;;;;5064734;28;20222;-69
2021/11/02 12:54:28;;;;;;;0.10;0.10;;;;;;;;;;5053238;28;20205;-68
2021/11/02 12:56:58;;;;;;;0.10;0.10;;;;;;;;;;5062148;28;20255;-69
2021/11/02 12:59:28;;;;;;;0.20;0.20;;;;;;;;;;5057483;28;20205;-68
2021/11/02 13:01:58;;;;;;;0.10;0.10;;;;;;;;;;5045661;28;20203;-68
2021/11/02 13:04:34;;;;;;;0.10;0.10;;;;;;;;;;5045825;28;20216;-68
2021/11/02 13:07:01;;;;;;;0.10;0.10;;;;;;;;;;5046447;28;20239;-68
2021/11/02 13:09:34;;;;;;;0.00;0.00;;;;;;;;;;5059359;28;20216;-68
2021/11/02 13:12:03;;;;;;;0.10;0.10;;;;;;;;;;5045808;28;20226;-68
2021/11/02 13:14:35;;;;;;;0.10;0.10;;;;;;;;;;5045320;28;20214;-68
2021/11/02 13:17:04;;;;;;;0.10;0.10;;;;;;;;;;5053607;28;20235;-69
2021/11/02 13:19:35;;;;;;;0.10;0.10;;;;;;;;;;5051334;28;20269;-67
2021/11/02 13:22:11;;;;;;;0.10;0.10;;;;;;;;;;5056927;28;20197;-68
2021/11/02 13:24:37;;;;;;;0.10;0.10;;;;;;;;;;5065273;28;20240;-68
2021/11/02 13:27:06;;;;;;;0.10;0.10;;;;;;;;;;5048989;28;20207;-68
2021/11/02 13:29:33;;;;;;;0.10;0.10;;;;;;;;;;5064934;28;20210;-68
2021/11/02 13:32:02;;;;;;;0.10;0.10;;;;;;;;;;5062707;28;20236;-68
2021/11/02 13:34:37;;;;;;;0.10;0.10;;;;;;;;;;5045313;28;20220;-68
2021/11/02 13:37:04;;;;;;;0.10;0.10;;;;;;;;;;5053685;28;20463;-68
2021/11/02 13:39:31;;;;;;;0.10;0.10;;;;;;;;;;5053447;28;20205;-67
2021/11/02 13:41:58;;;;;;;0.10;0.10;;;;;;;;;;5061238;28;20247;-68
2021/11/02 13:44:26;;;;;;;0.10;0.10;;;;;;;;;;5060549;28;20510;-68
2021/11/02 13:46:55;;;;;;;0.10;0.10;;;;;;;;;;5064794;28;20274;-67
2021/11/02 13:49:22;;;;;;;0.10;0.10;;;;;;;;;;5064647;28;20276;-67
2021/11/02 13:51:51;;;;;;;0.10;0.10;;;;;;;;;;5055263;28;20272;-67
2021/11/02 13:54:17;;;;;;;0.10;0.10;;;;;;;;;;5057970;28;20220;-68
2021/11/02 13:56:44;;;;;;;0.10;0.10;;;;;;;;;;5047899;28;20291;-68
2021/11/02 13:59:11;;;;;;;0.10;0.10;;;;;;;;;;5058734;28;20205;-68
2021/11/02 14:01:41;;;;;;;0.10;0.10;;;;;;;;;;5044960;28;20205;-68
2021/11/02 14:04:10;;;;;;;0.10;0.10;;;;;;;;;;5061479;28;20192;-68
2021/11/02 14:06:38;;;;;;;0.10;0.10;;;;;;;;;;5064755;28;20208;-68
2021/11/02 14:09:05;;;;;;;0.10;0.10;;;;;;;;;;5064436;28;20387;-68
2021/11/02 14:11:32;;;;;;;0.10;0.10;;;;;;;;;;5064535;28;20229;-68
2021/11/02 14:13:59;;;;;;;0.10;0.10;;;;;;;;;;5064358;28;20239;-68
2021/11/02 14:16:29;;;;;;;0.10;0.10;;;;;;;;;;5044513;28;20252;-68
2021/11/02 14:18:56;;;;;;;0.10;0.10;;;;;;;;;;5056709;28;20200;-68
2021/11/02 14:21:37;;;;;;;0.10;0.10;;;;;;;;;;5051079;28;20203;-68
2021/11/02 14:24:04;;;;;;;0.10;0.10;;;;;;;;;;5063752;28;20207;-68
2021/11/02 14:26:35;;;;;;;0.10;0.10;;;;;;;;;;5061049;28;20251;-68
2021/11/02 14:29:02;;;;;;;0.10;0.10;;;;;;;;;;5055966;28;20234;-69
2021/11/02 14:31:47;;;;;;;0.10;0.10;;;;;;;;;;5057999;28;20245;-69
2021/11/02 14:34:28;;;;;;;0.10;0.10;;;;;;;;;;5044147;28;20211;-68
2021/11/02 14:37:09;;;;;;;0.10;0.10;;;;;;;;;;5043769;28;20213;-69
2021/11/02 14:39:53;;;;;;;0.10;0.10;;;;;;;;;;5043710;28;20206;-68
2021/11/02 14:45:14;;;;;;;0.10;0.10;;;;;;;;;;5118883;27;20579;-68
2021/11/02 14:47:40;;;;;;;0.10;0.10;;;;;;;;;;5114768;28;20217;-68
2021/11/02 14:50:30;;;;;;;0.10;0.10;;;;;;;;;;5118326;28;20198;-68
2021/11/02 14:53:08;;;;;;;0.10;0.10;;;;;;;;;;5120192;28;20199;-72
2021/11/02 14:55:47;;;;;;;0.10;0.10;;;;;;;;;;5120256;28;20245;-73
2021/11/02 14:58:33;;;;;;;0.10;0.10;;;;;;;;;;5117420;28;20197;-74
2021/11/02 15:01:01;;;;;;;0.00;0.00;;;;;;;;;;5125691;28;20206;-71
2021/11/02 15:03:33;;;;;;;0.10;0.10;;;;;;;;;;5128810;27;20237;-73
2021/11/02 15:06:02;;;;;;;0.10;0.10;;;;;;;;;;5105709;28;20238;-72
2021/11/02 15:08:28;;;;;;;0.10;0.10;;;;;;;;;;5120614;28;20242;-73
2021/11/02 15:10:54;;;;;;;0.10;0.10;;;;;;;;;;5120095;28;20199;-71
2021/11/02 15:13:21;;;;;;;0.10;0.10;;;;;;;;;;5119116;28;20198;-73
2021/11/02 15:15:48;;;;;;;0.10;0.10;;;;;;;;;;5120145;28;20209;-74
2021/11/02 15:18:15;;;;;;;0.10;0.10;;;;;;;;;;5120449;28;20206;-73
2021/11/02 15:20:41;;;;;;;0.10;0.10;;;;;;;;;;5120038;28;20210;-73
2021/11/02 15:23:08;;;;;;;0.10;0.10;;;;;;;;;;5119824;28;20202;-72
2021/11/02 15:25:35;;;;;;;0.10;0.10;;;;;;;;;;5120227;28;20416;-72
2021/11/02 15:28:03;;;;;;;0.10;0.10;;;;;;;;;;5119813;28;20206;-72
2021/11/02 15:30:29;;;;;;;0.10;0.10;;;;;;;;;;5119168;28;20240;-72
2021/11/02 15:32:56;;;;;;;0.10;0.10;;;;;;;;;;5100099;28;20553;-71
2021/11/02 15:35:25;;;;;;;0.10;0.10;;;;;;;;;;5099640;28;20223;-70
2021/11/02 15:37:53;;;;;;;0.10;0.10;;;;;;;;;;5099991;28;20211;-72
2021/11/02 15:40:21;;;;;;;0.10;0.10;;;;;;;;;;5101488;28;20449;-72
2021/11/02 15:42:49;;;;;;;0.10;0.10;;;;;;;;;;5098814;28;20211;-71
2021/11/02 15:45:19;;;;;;;0.10;0.10;;;;;;;;;;5099376;28;20222;-71
2021/11/02 15:47:48;;;;;;;0.10;0.10;;;;;;;;;;5088761;28;20195;-72
2021/11/02 15:50:15;;;;;;;0.10;0.10;;;;;;;;;;5099361;28;20203;-72
2021/11/02 15:52:43;;;;;;;0.10;0.10;;;;;;;;;;5099050;28;20199;-72
2021/11/02 15:55:11;;;;;;;0.10;0.10;;;;;;;;;;5093485;28;20225;-72
2021/11/02 15:57:41;;;;;;;0.10;0.10;;;;;;;;;;5085742;28;20274;-73
2021/11/02 16:00:09;;;;;;;0.10;0.10;;;;;;;;;;5085514;28;20207;-73
2021/11/02 16:02:40;;;;;;;0.10;0.10;;;;;;;;;;5082218;28;20218;-74
2021/11/02 16:05:07;;;;;;;0.10;0.10;;;;;;;;;;5087217;28;20223;-72
2021/11/02 16:07:34;;;;;;;0.10;0.10;;;;;;;;;;5089718;28;20237;-72
2021/11/02 16:10:01;;;;;;;0.10;0.10;;;;;;;;;;5085340;28;20435;-72
2021/11/02 16:12:30;;;;;;;0.10;0.10;;;;;;;;;;5080074;28;20210;-70
2021/11/02 16:15:02;;;;;;;0.10;0.10;;;;;;;;;;5081248;28;20454;-70
2021/11/02 16:17:29;;;;;;;0.10;0.10;;;;;;;;;;5079408;28;20211;-71
2021/11/02 16:19:56;;;;;;;0.10;0.10;;;;;;;;;;5080492;28;20203;-72
2021/11/02 16:22:23;;;;;;;0.10;0.10;;;;;;;;;;5081196;28;20199;-72
2021/11/02 16:25:04;;;;;;;0.10;0.10;;;;;;;;;;5079506;28;20216;-72
2021/11/02 16:27:32;;;;;;;0.10;0.10;;;;;;;;;;5078677;28;20436;-69
2021/11/02 16:29:58;;;;;;;0.10;0.10;;;;;;;;;;5082349;28;20203;-71
2021/11/02 16:32:25;;;;;;;0.10;0.10;;;;;;;;;;5081724;28;20223;-71
2021/11/02 16:34:52;;;;;;;0.10;0.10;;;;;;;;;;5081940;28;20425;-73
2021/11/02 16:37:29;;;;;;;0.10;0.10;;;;;;;;;;5081499;28;20414;-71
2021/11/02 16:40:10;;;;;;;0.10;0.10;;;;;;;;;;5082180;28;20208;-74
2021/11/02 16:42:38;;;;;;;0.10;0.10;;;;;;;;;;5079009;28;20257;-72
2021/11/02 16:45:10;;;;;;;0.10;0.10;;;;;;;;;;5079956;28;20235;-71
2021/11/02 16:47:36;;;;;;;0.10;0.10;;;;;;;;;;5080440;28;20221;-71
2021/11/02 16:50:04;;;;;;;0.10;0.10;;;;;;;;;;5083044;28;20422;-74
2021/11/02 16:52:31;;;;;;;0.10;0.10;;;;;;;;;;5079935;28;20257;-76
2021/11/02 16:55:07;;;;;;;0.10;0.10;;;;;;;;;;5081995;28;20207;-70
2021/11/02 16:57:34;;;;;;;0.10;0.10;;;;;;;;;;5081735;28;20207;-72
2021/11/02 17:00:04;;;;;;;0.10;0.10;;;;;;;;;;5082402;28;20203;-73
2021/11/02 17:02:32;;;;;;;0.10;0.10;;;;;;;;;;5082729;28;20210;-72
2021/11/02 17:05:07;;;;;;;0.10;0.10;;;;;;;;;;5081105;28;20266;-74
2021/11/02 17:07:41;;;;;;;0.10;0.10;;;;;;;;;;5081457;28;20260;-71
2021/11/02 17:10:28;;;;;;;0.10;0.10;;;;;;;;;;5081414;28;20245;-61
2021/11/02 17:12:57;;;;;;;0.10;0.10;;;;;;;;;;5081029;28;20203;-61
2021/11/02 17:15:26;;;;;;;0.10;0.10;;;;;;;;;;5079607;28;20195;-62
2021/11/02 17:17:52;;;;;;;0.10;0.10;;;;;;;;;;5078925;28;20206;-61
2021/11/02 17:20:19;;;;;;;0.10;0.10;;;;;;;;;;5082107;28;20206;-61
2021/11/02 17:22:46;;;;;;;0.10;0.10;;;;;;;;;;5080108;28;20245;-61
2021/11/02 17:25:13;;;;;;;0.10;0.10;;;;;;;;;;5079989;28;20230;-61
2021/11/02 17:27:40;;;;;;;0.10;0.10;;;;;;;;;;5078838;28;20578;-60
2021/11/02 17:30:08;;;;;;;0.10;0.10;;;;;;;;;;5077535;28;20199;-63
2021/11/02 17:32:36;;;;;;;0.10;0.10;;;;;;;;;;5080502;28;20231;-62
2021/11/02 17:35:02;;;;;;;0.10;0.10;;;;;;;;;;5078303;28;20200;-62
2021/11/02 17:37:30;;;;;;;0.10;0.10;;;;;;;;;;5081176;28;20199;-61
2021/11/02 17:39:56;;;;;;;0.10;0.10;;;;;;;;;;5077973;28;20208;-62
2021/11/02 17:42:23;;;;;;;0.10;0.10;;;;;;;;;;5077572;28;20380;-62
2021/11/02 17:44:49;;;;;;;0.10;0.10;;;;;;;;;;5079629;28;20253;-62
2021/11/02 17:47:16;;;;;;;0.10;0.10;;;;;;;;;;5078906;28;20230;-61
2021/11/02 17:49:44;;;;;;;0.10;0.10;;;;;;;;;;5080256;28;20253;-61
2021/11/02 17:52:11;;;;;;;0.10;0.10;;;;;;;;;;5078016;28;20204;-61
2021/11/02 17:54:38;;;;;;;0.10;0.10;;;;;;;;;;5079069;28;20237;-61
2021/11/02 17:57:05;;;;;;;0.10;0.10;;;;;;;;;;5078200;28;20499;-62
2021/11/02 17:59:32;;;;;;;0.10;0.10;;;;;;;;;;5079998;28;20300;-60
2021/11/02 18:02:00;;;;;;;0.10;0.10;;;;;;;;;;5077439;28;20203;-62
2021/11/02 18:04:30;;;;;;;0.10;0.10;;;;;;;;;;5078308;28;20526;-61
2021/11/02 18:06:58;;;;;;;0.10;0.10;;;;;;;;;;5082405;28;20570;-61
2021/11/02 18:09:24;;;;;;;0.10;0.10;;;;;;;;;;5079579;28;20482;-62
2021/11/02 18:11:51;;;;;;;0.10;0.10;;;;;;;;;;5079203;28;20278;-62
2021/11/02 18:14:17;;;;;;;0.10;0.10;;;;;;;;;;5082124;28;20230;-71
2021/11/02 18:16:44;;;;;;;0.10;0.10;;;;;;;;;;5082008;28;20257;-71
2021/11/02 18:19:12;;;;;;;0.10;0.10;;;;;;;;;;5078334;28;20205;-71
2021/11/02 18:21:39;;;;;;;0.10;0.10;;;;;;;;;;5079933;28;20404;-70
2021/11/02 18:24:07;;;;;;;0.10;0.10;;;;;;;;;;5080031;28;20226;-70
2021/11/02 18:26:34;;;;;;;0.10;0.10;;;;;;;;;;5080013;28;20491;-70
2021/11/02 18:29:01;;;;;;;0.10;0.10;;;;;;;;;;5079274;28;20212;-70
2021/11/02 18:31:28;;;;;;;0.10;0.10;;;;;;;;;;5080533;28;20515;-70
2021/11/02 18:33:54;;;;;;;0.10;0.10;;;;;;;;;;5081495;28;20256;-71
2021/11/02 18:36:21;;;;;;;0.10;0.10;;;;;;;;;;5081302;28;20247;-72
2021/11/02 18:38:48;;;;;;;0.10;0.10;;;;;;;;;;5078662;28;20401;-68
2021/11/02 18:41:16;;;;;;;0.10;0.10;;;;;;;;;;5079111;28;20214;-71
2021/11/02 18:43:42;;;;;;;0.10;0.10;;;;;;;;;;5081321;28;20257;-72
2021/11/02 18:46:09;;;;;;;0.10;0.10;;;;;;;;;;5081748;28;20222;-69
2021/11/02 18:48:36;;;;;;;0.10;0.10;;;;;;;;;;5080106;28;20217;-70
2021/11/02 18:51:03;;;;;;;0.10;0.10;;;;;;;;;;5084230;28;20203;-70
2021/11/02 18:53:29;;;;;;;0.10;0.10;;;;;;;;;;5080189;28;20207;-70
2021/11/02 18:55:56;;;;;;;0.10;0.10;;;;;;;;;;5079525;28;20201;-70
2021/11/02 18:58:24;;;;;;;0.10;0.10;;;;;;;;;;5079995;28;20210;-72
2021/11/02 19:00:51;;;;;;;0.10;0.10;;;;;;;;;;5080240;28;20203;-72
2021/11/02 19:03:18;;;;;;;0.10;0.10;;;;;;;;;;5078762;28;20270;-72
2021/11/02 19:05:44;;;;;;;0.10;0.10;;;;;;;;;;5079947;28;20230;-72
2021/11/02 19:08:11;;;;;;;0.10;0.10;;;;;;;;;;5079420;28;20203;-73
2021/11/02 19:10:38;;;;;;;0.10;0.10;;;;;;;;;;5078523;28;20433;-73
2021/11/02 19:13:04;;;;;;;0.10;0.10;;;;;;;;;;5079951;28;20199;-72
2021/11/02 19:15:32;;;;;;;0.10;0.10;;;;;;;;;;5079643;28;20229;-72
2021/11/02 19:17:59;;;;;;;0.10;0.10;;;;;;;;;;5078558;28;20194;-73